Time;durP1;ratioP1;P1;durP2;ratioP2;P2;SDS_P1;SDS_P2;PMS_P1;PMS_P2;Temp;Humidity;BMP_temperature;BMP_pressure;BME280_temperature;BME280_humidity;BME280_pressure;Samples;Min_cycle;Max_cycle;Signal;HPM_P1;HPM_P2
2023/07/07 00:01:21;;;;;;;5.90;3.63;;;16.40;1.00;;;;;;5010247;28;20206;-76
2023/07/07 00:03:46;;;;;;;4.70;4.00;;;16.40;1.00;;;;;;5006375;28;20232;-74
2023/07/07 00:06:12;;;;;;;8.13;4.27;;;16.30;1.00;;;;;;5010506;28;20457;-74
2023/07/07 00:08:37;;;;;;;8.30;4.17;;;16.30;1.00;;;;;;5008961;28;20608;-75
2023/07/07 00:11:04;;;;;;;5.17;3.93;;;16.20;1.00;;;;;;5010298;28;20643;-78
2023/07/07 00:13:30;;;;;;;4.77;3.67;;;16.20;1.00;;;;;;5008349;28;20284;-74
2023/07/07 00:16:00;;;;;;;8.57;3.97;;;16.10;1.00;;;;;;5010084;28;20484;-76
2023/07/07 00:18:26;;;;;;;5.93;3.67;;;16.10;1.00;;;;;;5008270;28;20807;-73
2023/07/07 00:20:57;;;;;;;7.37;3.90;;;16.10;1.00;;;;;;5009054;28;20469;-74
2023/07/07 00:23:24;;;;;;;6.97;3.97;;;16.10;1.00;;;;;;5009786;28;20548;-74
2023/07/07 00:26:00;;;;;;;10.00;4.47;;;16.10;1.00;;;;;;5009678;28;20422;-74
2023/07/07 00:28:26;;;;;;;7.30;4.00;;;16.10;1.00;;;;;;5013824;28;20447;-75
2023/07/07 00:30:51;;;;;;;5.70;3.60;;;16.00;1.00;;;;;;5010041;28;20433;-75
2023/07/07 00:33:16;;;;;;;7.87;4.20;;;16.10;1.00;;;;;;5001960;28;20262;-74
2023/07/07 00:35:47;;;;;;;6.00;3.50;;;16.00;1.00;;;;;;5007690;28;20205;-74
2023/07/07 00:38:13;;;;;;;6.50;3.73;;;16.00;1.00;;;;;;5008226;28;20273;-75
2023/07/07 00:40:38;;;;;;;5.63;3.63;;;16.00;1.00;;;;;;5009720;28;20535;-74
2023/07/07 00:43:25;;;;;;;5.10;3.90;;;15.80;1.00;;;;;;5009541;28;20457;-74
2023/07/07 00:45:51;;;;;;;5.07;3.60;;;15.90;1.00;;;;;;5010545;28;20240;-76
2023/07/07 00:48:20;;;;;;;6.33;3.47;;;15.90;1.00;;;;;;5009200;28;20856;-74
2023/07/07 00:50:51;;;;;;;5.83;3.67;;;15.90;1.00;;;;;;5006459;28;20433;-75
2023/07/07 00:53:17;;;;;;;6.93;4.00;;;15.90;1.00;;;;;;5009075;28;20444;-74
2023/07/07 00:55:47;;;;;;;8.33;4.10;;;15.90;1.00;;;;;;5009838;28;20515;-74
2023/07/07 00:58:18;;;;;;;5.00;3.60;;;15.80;1.00;;;;;;5009374;28;20453;-73
2023/07/07 01:00:47;;;;;;;7.37;3.50;;;15.90;1.00;;;;;;5009980;28;20512;-74
2023/07/07 01:03:22;;;;;;;4.93;3.53;;;15.70;1.00;;;;;;5002397;28;20533;-75
2023/07/07 01:05:49;;;;;;;6.20;4.00;;;15.60;1.00;;;;;;5007971;28;20486;-74
2023/07/07 01:08:16;;;;;;;5.00;3.73;;;15.60;1.00;;;;;;5008750;28;20441;-74
2023/07/07 01:10:42;;;;;;;6.60;3.73;;;15.60;1.00;;;;;;5009703;28;20455;-75
2023/07/07 01:13:08;;;;;;;4.70;3.70;;;15.60;1.00;;;;;;5009604;28;20864;-74
2023/07/07 01:15:42;;;;;;;4.30;3.50;;;15.60;1.00;;;;;;5009642;28;20202;-74
2023/07/07 01:18:31;;;;;;;5.77;3.60;;;15.60;1.00;;;;;;5009318;28;20663;-74
2023/07/07 01:21:09;;;;;;;8.80;3.93;;;15.50;1.00;;;;;;5008756;28;21032;-74
2023/07/07 01:23:43;;;;;;;7.50;4.20;;;15.60;1.00;;;;;;5007809;28;20456;-74
2023/07/07 01:26:22;;;;;;;6.40;3.73;;;15.60;1.00;;;;;;5009668;28;20630;-74
2023/07/07 01:29:14;;;;;;;5.00;3.80;;;15.60;1.00;;;;;;5007195;28;20429;-74
2023/07/07 01:31:45;;;;;;;12.33;4.03;;;15.60;1.00;;;;;;5007952;28;20465;-76
2023/07/07 01:34:14;;;;;;;9.17;3.77;;;15.60;1.00;;;;;;5009503;28;20920;-74
2023/07/07 01:36:40;;;;;;;8.13;3.70;;;15.60;1.00;;;;;;5007206;28;21072;-76
2023/07/07 01:39:06;;;;;;;6.10;3.70;;;15.60;1.00;;;;;;5009469;28;20425;-75
2023/07/07 01:42:07;;;;;;;7.50;4.67;;;15.60;1.00;;;;;;5009023;28;20202;-74
2023/07/07 01:44:50;;;;;;;5.67;3.77;;;15.50;1.00;;;;;;4986193;28;20198;-75
2023/07/07 01:47:25;;;;;;;8.10;3.90;;;15.60;1.00;;;;;;5008767;28;20453;-74
2023/07/07 01:50:02;;;;;;;8.03;4.30;;;15.60;1.00;;;;;;5009551;28;20432;-73
2023/07/07 01:52:34;;;;;;;5.17;3.60;;;15.50;1.00;;;;;;5005189;28;20457;-72
2023/07/07 01:55:06;;;;;;;7.90;4.00;;;15.50;1.00;;;;;;5008055;28;20441;-73
2023/07/07 01:57:33;;;;;;;11.53;4.20;;;15.80;1.00;;;;;;5007263;28;20467;-73
2023/07/07 01:59:59;;;;;;;9.33;3.63;;;15.50;1.00;;;;;;5009177;28;20475;-72
2023/07/07 02:02:25;;;;;;;8.00;3.97;;;15.40;1.00;;;;;;5008887;28;20456;-73
2023/07/07 02:04:51;;;;;;;7.43;3.97;;;15.30;1.00;;;;;;5001093;28;20445;-73
2023/07/07 02:07:17;;;;;;;11.43;4.47;;;15.30;1.00;;;;;;5008050;28;20210;-73
2023/07/07 02:09:42;;;;;;;10.20;4.40;;;15.20;1.00;;;;;;5008015;28;20189;-73
2023/07/07 02:12:08;;;;;;;10.03;3.80;;;15.20;1.00;;;;;;5006821;28;20289;-73
2023/07/07 02:14:35;;;;;;;6.10;3.80;;;15.10;1.00;;;;;;5006820;28;20726;-75
2023/07/07 02:17:00;;;;;;;7.60;3.67;;;15.10;1.00;;;;;;5008958;28;20572;-73
2023/07/07 02:19:26;;;;;;;7.40;3.67;;;15.00;1.00;;;;;;5009027;28;20441;-73
2023/07/07 02:21:51;;;;;;;7.47;4.20;;;15.00;1.00;;;;;;5008512;28;20179;-73
2023/07/07 02:24:17;;;;;;;9.70;3.70;;;15.00;1.00;;;;;;5007103;28;20182;-73
2023/07/07 02:26:42;;;;;;;6.73;4.33;;;14.80;1.00;;;;;;5007055;28;20304;-74
2023/07/07 02:29:08;;;;;;;6.33;4.03;;;14.80;1.00;;;;;;5006280;28;20189;-72
2023/07/07 02:31:33;;;;;;;9.00;4.50;;;14.80;1.00;;;;;;5006760;28;20186;-73
2023/07/07 02:33:59;;;;;;;7.50;4.00;;;14.70;1.00;;;;;;5007632;28;20175;-73
2023/07/07 02:36:24;;;;;;;7.50;3.83;;;14.60;1.00;;;;;;5006667;28;20241;-72
2023/07/07 02:38:52;;;;;;;6.07;4.03;;;14.60;1.00;;;;;;5005304;28;20194;-73
2023/07/07 02:41:18;;;;;;;10.63;4.33;;;14.60;1.00;;;;;;5006562;28;20747;-73
2023/07/07 02:43:44;;;;;;;5.23;3.60;;;14.60;1.00;;;;;;5005216;28;20447;-73
2023/07/07 02:46:09;;;;;;;3.97;3.57;;;14.50;1.00;;;;;;5007932;28;20555;-73
2023/07/07 02:48:36;;;;;;;8.50;4.20;;;14.50;1.00;;;;;;5006414;28;20186;-73
2023/07/07 02:51:04;;;;;;;8.63;4.53;;;14.60;1.00;;;;;;5007433;28;20193;-73
2023/07/07 02:53:35;;;;;;;8.50;4.37;;;14.60;1.00;;;;;;5006976;28;21077;-74
2023/07/07 02:56:01;;;;;;;6.77;3.93;;;14.60;1.00;;;;;;5007568;28;21132;-72
2023/07/07 02:58:27;;;;;;;11.00;3.80;;;14.50;1.00;;;;;;5008392;28;20504;-73
2023/07/07 03:00:53;;;;;;;7.60;4.50;;;14.40;1.00;;;;;;5007987;28;20583;-73
2023/07/07 03:03:19;;;;;;;5.10;3.87;;;14.40;1.00;;;;;;5008048;28;20194;-73
2023/07/07 03:05:45;;;;;;;5.97;3.70;;;14.40;1.00;;;;;;5009435;28;20186;-73
2023/07/07 03:08:11;;;;;;;6.53;4.40;;;14.50;1.00;;;;;;5009155;28;20459;-73
2023/07/07 03:10:38;;;;;;;5.60;4.30;;;14.40;1.00;;;;;;5011006;28;20622;-74
2023/07/07 03:13:04;;;;;;;5.40;3.70;;;14.40;1.00;;;;;;5008508;28;20186;-74
2023/07/07 03:15:38;;;;;;;16.10;8.77;;;14.40;1.00;;;;;;5011188;28;20847;-73
2023/07/07 03:18:06;;;;;;;8.87;5.80;;;14.30;1.00;;;;;;5011009;28;20181;-73
2023/07/07 03:20:31;;;;;;;5.53;4.43;;;14.30;1.00;;;;;;5011210;28;20464;-73
2023/07/07 03:22:56;;;;;;;6.50;4.40;;;14.40;1.00;;;;;;5010276;28;20445;-73
2023/07/07 03:25:25;;;;;;;5.97;4.40;;;14.30;1.00;;;;;;5010602;28;20233;-73
2023/07/07 03:27:51;;;;;;;9.97;4.03;;;14.30;1.00;;;;;;5010244;28;20293;-72
2023/07/07 03:30:16;;;;;;;9.03;4.30;;;14.20;1.00;;;;;;5011419;28;20548;-73
2023/07/07 03:32:42;;;;;;;7.47;3.83;;;14.10;1.00;;;;;;5010017;28;20221;-72
2023/07/07 03:35:07;;;;;;;6.93;3.77;;;14.10;1.00;;;;;;5010276;28;20206;-74
2023/07/07 03:37:33;;;;;;;8.03;4.20;;;14.00;1.00;;;;;;5008192;28;20294;-75
2023/07/07 03:39:58;;;;;;;5.80;4.40;;;14.10;1.00;;;;;;5010241;28;20256;-72
2023/07/07 03:42:24;;;;;;;7.77;4.30;;;14.00;1.00;;;;;;5010650;28;20274;-73
2023/07/07 03:44:50;;;;;;;5.80;3.87;;;14.00;1.00;;;;;;5009448;28;20303;-73
2023/07/07 03:47:15;;;;;;;7.60;4.30;;;14.10;1.00;;;;;;5009920;28;20468;-73
2023/07/07 03:49:41;;;;;;;5.60;4.10;;;14.10;1.00;;;;;;5010770;28;20455;-72
2023/07/07 03:52:07;;;;;;;5.37;4.10;;;14.10;1.00;;;;;;5010639;28;20759;-72
2023/07/07 03:54:32;;;;;;;6.00;3.87;;;14.10;1.00;;;;;;5010473;28;20204;-73
2023/07/07 03:56:58;;;;;;;5.47;4.13;;;14.00;1.00;;;;;;5010289;28;20225;-73
2023/07/07 03:59:23;;;;;;;5.97;4.57;;;14.00;1.00;;;;;;5009438;28;20560;-73
2023/07/07 04:01:49;;;;;;;7.73;4.37;;;14.10;1.00;;;;;;5010436;28;20209;-74
2023/07/07 04:04:15;;;;;;;5.40;3.87;;;14.10;1.00;;;;;;5010504;28;20186;-74
2023/07/07 04:06:40;;;;;;;5.63;3.73;;;14.20;1.00;;;;;;5009555;28;20457;-72
2023/07/07 04:09:06;;;;;;;7.10;4.57;;;14.30;1.00;;;;;;5009775;28;20675;-73
2023/07/07 04:11:31;;;;;;;8.93;4.20;;;14.30;1.00;;;;;;5009651;28;20214;-74
2023/07/07 04:13:57;;;;;;;5.60;3.70;;;14.30;1.00;;;;;;5009368;28;20194;-72
2023/07/07 04:16:24;;;;;;;5.90;3.80;;;14.30;1.00;;;;;;5010163;28;20210;-72
2023/07/07 04:18:53;;;;;;;5.27;3.80;;;14.40;1.00;;;;;;5007686;28;20182;-72
2023/07/07 04:21:21;;;;;;;6.97;4.17;;;14.40;1.00;;;;;;5009677;28;20469;-72
2023/07/07 04:23:48;;;;;;;11.10;4.60;;;14.50;1.00;;;;;;5008597;28;20480;-72
2023/07/07 04:26:14;;;;;;;6.47;4.40;;;14.50;1.00;;;;;;5008769;28;20457;-74
2023/07/07 04:28:40;;;;;;;5.03;4.10;;;14.50;1.00;;;;;;5009320;28;20442;-74
2023/07/07 04:31:08;;;;;;;6.33;4.60;;;14.60;1.00;;;;;;5007703;28;20488;-74
2023/07/07 04:33:35;;;;;;;7.17;4.03;;;14.60;1.00;;;;;;5009200;28;20480;-73
2023/07/07 04:36:03;;;;;;;7.80;4.30;;;14.60;1.00;;;;;;5009367;28;20524;-72
2023/07/07 04:38:32;;;;;;;5.70;3.87;;;14.60;1.00;;;;;;5006497;28;20445;-73
2023/07/07 04:41:06;;;;;;;8.27;4.00;;;14.70;1.00;;;;;;5009223;28;20469;-73
2023/07/07 04:43:33;;;;;;;8.43;4.17;;;14.80;1.00;;;;;;5009311;28;20476;-71
2023/07/07 04:46:00;;;;;;;6.00;4.50;;;14.80;1.00;;;;;;5009042;28;20476;-72
2023/07/07 04:48:25;;;;;;;6.40;4.13;;;14.90;1.00;;;;;;5007294;28;20456;-73
2023/07/07 04:50:55;;;;;;;9.13;4.20;;;14.90;1.00;;;;;;5008798;28;20835;-74
2023/07/07 04:53:21;;;;;;;5.13;4.30;;;15.00;1.00;;;;;;5008413;28;20544;-72
2023/07/07 04:55:46;;;;;;;7.70;4.40;;;15.20;1.00;;;;;;5009948;28;20726;-72
2023/07/07 04:58:12;;;;;;;11.07;4.10;;;15.20;1.00;;;;;;5008297;28;20194;-75
2023/07/07 05:00:38;;;;;;;7.93;4.10;;;;;;;;;;5009838;28;20202;-73
2023/07/07 05:03:04;;;;;;;8.10;4.10;;;15.40;1.00;;;;;;5008142;28;20189;-73
2023/07/07 05:05:29;;;;;;;10.77;4.67;;;15.50;1.00;;;;;;5009729;28;20206;-72
2023/07/07 05:07:55;;;;;;;7.27;4.40;;;15.50;1.00;;;;;;5008143;28;20210;-74
2023/07/07 05:10:21;;;;;;;11.70;4.60;;;15.60;1.00;;;;;;5009231;28;20197;-72
2023/07/07 05:12:46;;;;;;;9.40;5.03;;;18.00;1.00;;;;;;5007094;28;20190;-73
2023/07/07 05:15:12;;;;;;;13.07;4.73;;;15.90;1.00;;;;;;5009347;28;20193;-72
2023/07/07 05:17:37;;;;;;;7.03;5.10;;;16.00;1.00;;;;;;5007955;28;20206;-73
2023/07/07 05:20:03;;;;;;;7.07;5.13;;;16.00;1.00;;;;;;5008024;28;20692;-73
2023/07/07 05:22:29;;;;;;;8.70;5.47;;;16.20;1.00;;;;;;5008986;28;20179;-73
2023/07/07 05:24:54;;;;;;;9.40;4.87;;;16.30;1.00;;;;;;5009093;28;20488;-75
2023/07/07 05:27:20;;;;;;;8.30;4.40;;;16.30;1.00;;;;;;5007351;28;20233;-73
2023/07/07 05:29:45;;;;;;;9.97;5.43;;;16.40;1.00;;;;;;5007958;28;20232;-74
2023/07/07 05:32:11;;;;;;;14.47;5.40;;;16.50;1.00;;;;;;5007940;28;20202;-72
2023/07/07 05:34:36;;;;;;;8.77;5.03;;;16.60;1.00;;;;;;5009096;28;20202;-72
2023/07/07 05:37:02;;;;;;;12.63;6.23;;;16.60;1.00;;;;;;5008660;28;20690;-73
2023/07/07 05:39:27;;;;;;;12.97;5.57;;;16.60;1.00;;;;;;5007098;28;20262;-73
2023/07/07 05:41:53;;;;;;;8.70;5.60;;;16.60;1.00;;;;;;5007811;28;20330;-73
2023/07/07 05:44:18;;;;;;;15.70;5.87;;;17.40;1.00;;;;;;5008898;28;20644;-73
2023/07/07 05:46:44;;;;;;;12.63;6.17;;;16.70;1.00;;;;;;5006599;28;20257;-73
2023/07/07 05:49:10;;;;;;;9.20;5.63;;;16.80;1.00;;;;;;5007738;28;20182;-73
2023/07/07 05:51:35;;;;;;;13.07;6.10;;;16.90;1.00;;;;;;5005841;28;20194;-73
2023/07/07 05:54:01;;;;;;;7.83;5.67;;;17.00;1.00;;;;;;5006589;28;20190;-73
2023/07/07 05:56:27;;;;;;;13.73;6.40;;;17.20;1.00;;;;;;5008841;28;20210;-73
2023/07/07 05:58:54;;;;;;;12.90;6.07;;;17.30;1.00;;;;;;5008042;28;20192;-73
2023/07/07 06:01:19;;;;;;;9.17;5.80;;;17.40;1.00;;;;;;5006922;28;20317;-73
2023/07/07 06:03:45;;;;;;;13.53;6.23;;;17.50;1.00;;;;;;5008538;28;20986;-73
2023/07/07 06:06:11;;;;;;;11.03;5.87;;;17.60;1.00;;;;;;5006662;28;20644;-73
2023/07/07 06:08:39;;;;;;;10.63;5.80;;;17.70;1.00;;;;;;5008426;28;20445;-73
2023/07/07 06:11:04;;;;;;;8.80;6.07;;;17.80;1.00;;;;;;5007523;28;20515;-73
2023/07/07 06:13:30;;;;;;;8.07;5.47;;;17.90;1.00;;;;;;5006901;28;20441;-73
2023/07/07 06:15:56;;;;;;;9.80;5.33;;;18.20;1.00;;;;;;5007065;28;20538;-73
2023/07/07 06:18:22;;;;;;;12.00;5.68;;;18.20;1.00;;;;;;5001066;28;20431;-71
2023/07/07 06:20:49;;;;;;;10.43;6.33;;;18.50;1.00;;;;;;5019446;22;20209;-76
2023/07/07 06:23:14;;;;;;;8.67;4.90;;;18.50;1.00;;;;;;4983800;28;20230;-76
2023/07/07 06:25:40;;;;;;;7.57;4.90;;;18.60;1.00;;;;;;4981997;28;20471;-77
2023/07/07 06:28:05;;;;;;;11.37;5.13;;;18.70;1.00;;;;;;4975417;28;20252;-79
2023/07/07 06:30:31;;;;;;;7.97;5.60;;;18.90;1.00;;;;;;4982240;28;20283;-77
2023/07/07 06:32:58;;;;;;;9.53;4.80;;;18.80;1.00;;;;;;4982710;28;20183;-79
2023/07/07 06:35:25;;;;;;;9.10;5.27;;;19.00;1.00;;;;;;4989012;28;20183;-78
2023/07/07 06:37:50;;;;;;;8.80;5.33;;;19.10;1.00;;;;;;4984682;28;20485;-79
2023/07/07 06:40:16;;;;;;;9.67;5.03;;;19.30;1.00;;;;;;4982108;28;20497;-78
2023/07/07 06:42:41;;;;;;;8.43;4.53;;;19.40;1.00;;;;;;4993186;28;20293;-79
2023/07/07 06:45:07;;;;;;;7.20;5.33;;;19.50;1.00;;;;;;4991123;28;20179;-78
2023/07/07 06:47:33;;;;;;;9.27;5.07;;;19.60;1.00;;;;;;4986790;28;20606;-79
2023/07/07 06:49:58;;;;;;;10.10;4.87;;;19.70;1.00;;;;;;4990035;28;20488;-77
2023/07/07 06:52:24;;;;;;;7.83;4.40;;;19.80;1.00;;;;;;4992735;28;20202;-76
2023/07/07 06:54:49;;;;;;;9.20;4.43;;;20.00;1.00;;;;;;4990685;28;20190;-76
2023/07/07 06:57:15;;;;;;;6.00;3.90;;;20.10;1.00;;;;;;4990571;28;20190;-76
2023/07/07 06:59:40;;;;;;;12.90;4.73;;;20.20;1.00;;;;;;4993016;28;20703;-79
2023/07/07 07:02:10;;;;;;;8.33;4.30;;;20.40;1.00;;;;;;4990916;28;20194;-76
2023/07/07 07:04:35;;;;;;;9.13;4.53;;;20.60;1.00;;;;;;4989319;28;20230;-77
2023/07/07 07:07:01;;;;;;;7.73;4.00;;;20.80;1.00;;;;;;4991094;28;20972;-79
2023/07/07 07:09:26;;;;;;;7.07;4.37;;;21.00;1.00;;;;;;4992905;28;20179;-77
2023/07/07 07:11:52;;;;;;;18.77;5.40;;;21.30;1.00;;;;;;4983711;28;20699;-76
2023/07/07 07:14:17;;;;;;;6.97;4.20;;;21.40;1.00;;;;;;4985387;28;20191;-76
2023/07/07 07:16:43;;;;;;;7.03;4.47;;;21.60;1.00;;;;;;4978131;28;20198;-77
2023/07/07 07:19:08;;;;;;;9.77;4.20;;;21.70;1.00;;;;;;4979483;28;20431;-75
2023/07/07 07:21:34;;;;;;;8.90;4.43;;;21.90;1.00;;;;;;4985233;28;20510;-73
2023/07/07 07:23:59;;;;;;;27.00;6.17;;;22.20;1.00;;;;;;4983361;28;20190;-75
2023/07/07 07:26:25;;;;;;;8.80;4.30;;;22.40;1.00;;;;;;4977565;28;20191;-75
2023/07/07 07:28:52;;;;;;;7.43;4.03;;;22.90;1.00;;;;;;4984114;28;20198;-74
2023/07/07 07:31:17;;;;;;;9.10;4.00;;;22.80;1.00;;;;;;4982360;28;20207;-72
2023/07/07 07:33:43;;;;;;;9.47;4.53;;;23.10;1.00;;;;;;4980961;28;20927;-73
2023/07/07 07:36:09;;;;;;;6.93;4.30;;;23.60;1.00;;;;;;4967546;28;20187;-73
2023/07/07 07:38:34;;;;;;;8.03;4.20;;;23.60;1.00;;;;;;4977787;28;20205;-76
2023/07/07 07:41:00;;;;;;;29.53;5.13;;;23.70;1.00;;;;;;4990303;28;20247;-75
2023/07/07 07:43:26;;;;;;;5.53;4.00;;;24.10;1.00;;;;;;4990350;28;20179;-72
2023/07/07 07:45:51;;;;;;;7.70;4.10;;;24.50;1.00;;;;;;4989999;28;20452;-76
2023/07/07 07:48:17;;;;;;;6.43;3.80;;;24.80;1.00;;;;;;4990813;28;20214;-73
2023/07/07 07:50:43;;;;;;;9.30;4.13;;;25.20;1.00;;;;;;4992020;28;20186;-76
2023/07/07 07:53:08;;;;;;;5.30;3.87;;;28.00;1.00;;;;;;4989283;28;20186;-75
2023/07/07 07:55:34;;;;;;;6.87;4.60;;;25.40;1.00;;;;;;4991764;28;20400;-76
2023/07/07 07:58:00;;;;;;;7.90;3.53;;;25.80;1.00;;;;;;4990668;28;20565;-71
2023/07/07 08:00:25;;;;;;;8.63;3.80;;;26.00;1.00;;;;;;4991393;28;20568;-79
2023/07/07 08:02:51;;;;;;;6.10;3.80;;;26.00;1.00;;;;;;4988573;28;20454;-77
2023/07/07 08:05:16;;;;;;;8.53;4.30;;;26.00;1.00;;;;;;4990912;28;20190;-77
2023/07/07 08:07:42;;;;;;;5.90;3.70;;;26.10;1.00;;;;;;4990936;28;20238;-76
2023/07/07 08:10:08;;;;;;;5.60;3.67;;;26.20;1.00;;;;;;4989666;28;20182;-76
2023/07/07 08:12:34;;;;;;;7.53;3.67;;;26.40;1.00;;;;;;4991465;28;20214;-77
2023/07/07 08:14:59;;;;;;;8.10;4.10;;;26.40;1.00;;;;;;4990981;28;20441;-77
2023/07/07 08:17:25;;;;;;;5.27;3.60;;;26.60;1.00;;;;;;4990420;28;20182;-76
2023/07/07 08:19:53;;;;;;;6.27;3.90;;;26.80;1.00;;;;;;4991940;28;20728;-77
2023/07/07 08:22:21;;;;;;;7.37;4.40;;;27.10;1.00;;;;;;4989372;28;20214;-78
2023/07/07 08:24:52;;;;;;;7.20;3.73;;;27.20;1.00;;;;;;4990812;28;20508;-76
2023/07/07 08:27:19;;;;;;;5.90;3.50;;;27.40;1.00;;;;;;4991013;28;20453;-76
2023/07/07 08:29:44;;;;;;;7.00;3.70;;;27.60;1.00;;;;;;4990090;28;20480;-75
2023/07/07 08:32:17;;;;;;;7.03;4.00;;;27.90;1.00;;;;;;4987139;28;20250;-73
2023/07/07 08:34:43;;;;;;;7.10;4.03;;;28.10;1.00;;;;;;4986941;28;20245;-77
2023/07/07 08:37:10;;;;;;;6.73;4.10;;;28.10;1.00;;;;;;4990724;28;20187;-78
2023/07/07 08:39:36;;;;;;;5.87;4.00;;;28.00;1.00;;;;;;4991615;28;20181;-76
2023/07/07 08:42:17;;;;;;;7.73;4.50;;;28.10;1.00;;;;;;4991301;28;20209;-77
2023/07/07 08:44:43;;;;;;;6.57;4.20;;;28.30;1.00;;;;;;5000530;28;20213;-78
2023/07/07 08:47:40;;;;;;;8.30;4.50;;;28.70;1.00;;;;;;4990005;28;20186;-77
2023/07/07 08:50:33;;;;;;;7.43;3.90;;;29.00;1.00;;;;;;4982126;28;20573;-77
2023/07/07 08:53:36;;;;;;;11.40;4.13;;;29.40;1.00;;;;;;4969827;28;20557;-76
2023/07/07 08:56:17;;;;;;;6.60;4.03;;;29.60;1.00;;;;;;4987626;28;20186;-76
2023/07/07 08:59:17;;;;;;;7.37;4.03;;;29.80;1.00;;;;;;4986171;28;20182;-75
2023/07/07 09:02:08;;;;;;;5.47;4.00;;;30.20;1.00;;;;;;4990862;28;20218;-77
2023/07/07 09:04:42;;;;;;;8.30;3.97;;;30.30;1.00;;;;;;4987038;28;20175;-77
2023/07/07 09:07:44;;;;;;;11.77;5.03;;;30.20;1.00;;;;;;4989320;28;20177;-73
2023/07/07 09:10:31;;;;;;;11.32;4.38;;;30.60;1.00;;;;;;4986216;28;20195;-76
2023/07/07 09:13:22;;;;;;;13.75;4.45;;;31.70;1.00;;;;;;4985537;28;20195;-77
2023/07/07 09:16:06;;;;;;;9.15;4.38;;;32.80;1.00;;;;;;4974260;28;20311;-76
2023/07/07 09:18:42;;;;;;;10.60;4.53;;;34.00;1.00;;;;;;4984391;28;20544;-77
2023/07/07 09:21:21;;;;;;;5.80;4.10;;;34.90;1.00;;;;;;4990492;28;20245;-74
2023/07/07 09:23:50;;;;;;;7.63;4.38;;;36.00;1.00;;;;;;4991239;28;20544;-78
2023/07/07 09:26:31;;;;;;;5.75;4.20;;;36.40;1.00;;;;;;4991269;28;20229;-76
2023/07/07 09:28:59;;;;;;;6.85;4.22;;;37.30;1.00;;;;;;4991166;28;20182;-78
2023/07/07 09:31:29;;;;;;;12.93;4.45;;;38.10;1.00;;;;;;4990164;28;20221;-77
2023/07/07 09:33:59;;;;;;;5.68;3.90;;;38.40;1.00;;;;;;4997048;28;20194;-77
2023/07/07 09:36:49;;;;;;;5.22;4.05;;;38.50;1.00;;;;;;4982492;28;20191;-77
2023/07/07 09:39:38;;;;;;;6.15;4.30;;;38.50;1.00;;;;;;4990575;28;20186;-77
2023/07/07 09:42:23;;;;;;;6.20;4.80;;;38.50;1.00;;;;;;4990440;28;20210;-79
2023/07/07 09:45:01;;;;;;;5.30;3.97;;;38.50;1.00;;;;;;4984165;28;20350;-78
2023/07/07 09:47:34;;;;;;;7.28;4.30;;;39.30;1.00;;;;;;4989176;28;20604;-77
2023/07/07 09:50:15;;;;;;;7.38;4.05;;;39.70;1.00;;;;;;4986936;28;20185;-78
2023/07/07 09:52:57;;;;;;;5.88;4.63;;;40.00;1.00;;;;;;4985121;28;20234;-79
2023/07/07 09:55:28;;;;;;;6.28;4.70;;;40.10;1.00;;;;;;4990696;28;20656;-78
2023/07/07 09:58:10;;;;;;;7.22;4.28;;;40.40;1.00;;;;;;4989256;28;20213;-80
2023/07/07 10:00:36;;;;;;;9.63;4.18;;;39.80;1.00;;;;;;4982120;28;20202;-77
2023/07/07 10:03:12;;;;;;;6.18;4.40;;;39.90;1.00;;;;;;4989722;28;20186;-78
2023/07/07 10:05:38;;;;;;;5.43;4.30;;;40.40;1.00;;;;;;4988257;28;20636;-77
2023/07/07 10:08:08;;;;;;;6.32;4.75;;;40.60;1.00;;;;;;4989079;28;20204;-77
2023/07/07 10:10:34;;;;;;;6.22;4.53;;;41.00;1.00;;;;;;4993159;28;20178;-76
2023/07/07 10:12:59;;;;;;;7.20;4.68;;;41.00;1.00;;;;;;4989745;28;20699;-76
2023/07/07 10:15:45;;;;;;;7.97;5.05;;;40.40;1.00;;;;;;4985204;28;20190;-77
2023/07/07 10:18:16;;;;;;;7.55;4.78;;;39.90;1.00;;;;;;4977832;28;20363;-75
2023/07/07 10:20:41;;;;;;;8.38;5.00;;;40.20;1.00;;;;;;4982420;28;20208;-76
2023/07/07 10:23:11;;;;;;;10.88;5.00;;;40.20;1.00;;;;;;4987680;28;20564;-74
2023/07/07 10:25:39;;;;;;;8.02;4.95;;;41.00;1.00;;;;;;4988709;28;20207;-77
2023/07/07 10:28:07;;;;;;;7.93;5.07;;;41.60;1.00;;;;;;4986075;28;20652;-76
2023/07/07 10:30:33;;;;;;;9.32;4.95;;;42.30;1.00;;;;;;4980853;28;20198;-76
2023/07/07 10:32:58;;;;;;;7.15;4.53;;;42.30;1.00;;;;;;4987513;28;20192;-76
2023/07/07 10:35:24;;;;;;;9.07;5.50;;;42.70;1.00;;;;;;4986139;28;20190;-73
2023/07/07 10:37:50;;;;;;;6.70;5.00;;;42.90;1.00;;;;;;4987839;28;20819;-76
2023/07/07 10:40:24;;;;;;;7.78;5.40;;;42.80;1.00;;;;;;4988992;28;20214;-76
2023/07/07 10:42:54;;;;;;;10.15;5.68;;;42.30;1.00;;;;;;4984027;28;20216;-77
2023/07/07 10:45:21;;;;;;;6.95;5.35;;;42.60;1.00;;;;;;4985646;28;20222;-75
2023/07/07 10:47:46;;;;;;;6.25;4.78;;;43.10;1.00;;;;;;4985388;28;20614;-77
2023/07/07 10:50:16;;;;;;;8.50;4.82;;;43.80;1.00;;;;;;4985729;28;20193;-77
2023/07/07 10:53:05;;;;;;;7.03;5.80;;;44.10;1.00;;;;;;4985032;28;20205;-76
2023/07/07 10:55:47;;;;;;;7.18;5.38;;;42.60;1.00;;;;;;4987619;28;20274;-76
2023/07/07 10:58:45;;;;;;;8.05;4.80;;;42.10;1.00;;;;;;4981318;28;20758;-77
2023/07/07 11:01:41;;;;;;;11.68;6.30;;;41.30;1.00;;;;;;4978056;28;20448;-76
2023/07/07 11:04:28;;;;;;;7.38;6.05;;;41.30;1.00;;;;;;4982231;28;20182;-79
2023/07/07 11:07:17;;;;;;;8.80;6.75;;;40.70;1.00;;;;;;4979770;28;20261;-79
2023/07/07 11:10:03;;;;;;;6.68;5.00;;;41.40;1.00;;;;;;4981545;28;20189;-78
2023/07/07 11:12:45;;;;;;;7.07;5.35;;;41.90;1.00;;;;;;4985775;28;20198;-79
2023/07/07 11:15:21;;;;;;;9.52;5.85;;;42.80;1.00;;;;;;4988688;28;20187;-78
2023/07/07 11:17:49;;;;;;;7.03;5.82;;;43.30;1.00;;;;;;4986484;28;20237;-79
2023/07/07 11:20:31;;;;;;;7.82;5.72;;;42.30;1.00;;;;;;4987043;28;20786;-78
2023/07/07 11:23:18;;;;;;;7.28;5.63;;;42.60;1.00;;;;;;4981622;28;20187;-78
2023/07/07 11:25:52;;;;;;;8.15;5.97;;;43.10;1.00;;;;;;4979025;28;20190;-77
2023/07/07 11:28:32;;;;;;;10.20;5.97;;;43.80;1.00;;;;;;4988376;28;20671;-77
2023/07/07 11:31:23;;;;;;;11.10;6.25;;;43.60;1.00;;;;;;4985238;28;20417;-78
2023/07/07 11:33:48;;;;;;;9.63;6.25;;;43.80;1.00;;;;;;4987946;28;20262;-78
2023/07/07 11:36:39;;;;;;;7.68;6.60;;;44.30;1.00;;;;;;4990060;28;20283;-78
2023/07/07 11:39:40;;;;;;;9.93;6.32;;;43.80;1.00;;;;;;4981547;28;20187;-79
2023/07/07 11:42:11;;;;;;;9.32;6.38;;;43.20;1.00;;;;;;4977061;28;20223;-78
2023/07/07 11:45:02;;;;;;;7.55;5.85;;;43.20;1.00;;;;;;4990415;28;20179;-78
2023/07/07 11:47:49;;;;;;;6.68;5.60;;;42.60;1.00;;;;;;4986295;28;20245;-78
2023/07/07 11:50:36;;;;;;;8.07;6.25;;;43.20;1.00;;;;;;4988189;28;20744;-78
2023/07/07 11:53:41;;;;;;;8.38;6.07;;;44.00;1.00;;;;;;4990127;28;20597;-78
2023/07/07 11:56:23;;;;;;;8.45;6.03;;;45.00;1.00;;;;;;4988960;28;20194;-80
2023/07/07 11:59:25;;;;;;;10.98;7.55;;;46.00;1.00;;;;;;4989848;28;20864;-79
2023/07/07 12:01:54;;;;;;;11.02;7.75;;;45.50;1.00;;;;;;4986460;28;20210;-79
2023/07/07 12:04:28;;;;;;;8.82;7.68;;;44.20;1.00;;;;;;4990481;28;20660;-80
2023/07/07 12:07:00;;;;;;;9.20;7.80;;;44.10;1.00;;;;;;4987928;28;20182;-78
2023/07/07 12:09:45;;;;;;;12.13;7.80;;;44.70;1.00;;;;;;4987755;28;20577;-76
2023/07/07 12:12:36;;;;;;;10.07;8.05;;;44.30;1.00;;;;;;4988745;28;20293;-76
2023/07/07 12:15:26;;;;;;;9.43;7.47;;;44.80;1.00;;;;;;4989235;28;20256;-75
2023/07/07 12:18:16;;;;;;;9.70;7.57;;;46.00;1.00;;;;;;4984797;28;20179;-78
2023/07/07 12:21:06;;;;;;;9.80;7.35;;;47.20;1.00;;;;;;4990516;28;20210;-76
2023/07/07 12:23:37;;;;;;;8.95;7.45;;;47.40;1.00;;;;;;4991536;28;20197;-78
2023/07/07 12:26:25;;;;;;;9.48;7.38;;;46.90;1.00;;;;;;4992334;28;20675;-78
2023/07/07 12:28:56;;;;;;;9.05;7.60;;;45.90;1.00;;;;;;4991914;28;20182;-76
2023/07/07 12:31:25;;;;;;;10.85;7.50;;;45.30;1.00;;;;;;4991747;28;20229;-77
2023/07/07 12:33:51;;;;;;;13.93;7.28;;;45.50;1.00;;;;;;4991418;28;20237;-77
2023/07/07 12:36:24;;;;;;;8.80;7.20;;;45.90;1.00;;;;;;4991970;28;20530;-77
2023/07/07 12:38:54;;;;;;;11.35;7.65;;;45.80;1.00;;;;;;4990746;28;20191;-78
2023/07/07 12:41:24;;;;;;;8.82;7.03;;;45.30;1.00;;;;;;4991811;28;20670;-77
2023/07/07 12:43:58;;;;;;;10.90;8.25;;;44.00;1.00;;;;;;4990982;28;20549;-78
2023/07/07 12:46:29;;;;;;;13.13;8.05;;;44.10;1.00;;;;;;4991729;28;20547;-79
2023/07/07 12:48:58;;;;;;;10.32;7.90;;;43.90;1.00;;;;;;4983999;28;20189;-77
2023/07/07 12:51:26;;;;;;;9.52;7.65;;;44.10;1.00;;;;;;4991641;28;20202;-78
2023/07/07 12:53:54;;;;;;;9.80;7.30;;;44.70;1.00;;;;;;4991234;28;20199;-78
2023/07/07 12:56:28;;;;;;;9.45;7.50;;;45.80;1.00;;;;;;4991694;28;20190;-78
2023/07/07 12:58:58;;;;;;;9.52;7.93;;;46.90;1.00;;;;;;4983722;28;20555;-78
2023/07/07 13:01:36;;;;;;;13.05;7.68;;;46.80;1.00;;;;;;4991347;28;20202;-77
2023/07/07 13:04:07;;;;;;;12.50;8.20;;;46.60;1.00;;;;;;4984249;28;20229;-78
2023/07/07 13:06:41;;;;;;;11.10;7.70;;;47.20;1.00;;;;;;4990938;28;20637;-79
2023/07/07 13:09:13;;;;;;;9.63;7.80;;;46.90;1.00;;;;;;4991539;28;20174;-78
2023/07/07 13:11:44;;;;;;;9.32;7.95;;;46.50;1.00;;;;;;4990809;28;20209;-77
2023/07/07 13:14:40;;;;;;;11.10;8.70;;;47.00;1.00;;;;;;4990865;28;20197;-78